sensor_id;sensor_type;location;lat;lon;timestamp;P1;durP1;ratioP1;P2;durP2;ratioP2
3121;SDS011;1571;52.524;14.104;2023-06-22T00:00:39;18.60;;;17.00;;
3121;SDS011;1571;52.524;14.104;2023-06-22T00:03:09;19.30;;;17.57;;
3121;SDS011;1571;52.524;14.104;2023-06-22T00:05:38;19.80;;;18.00;;
3121;SDS011;1571;52.524;14.104;2023-06-22T00:08:06;19.27;;;17.57;;
3121;SDS011;1571;52.524;14.104;2023-06-22T00:10:34;19.67;;;18.07;;
3121;SDS011;1571;52.524;14.104;2023-06-22T00:13:03;18.67;;;16.87;;
3121;SDS011;1571;52.524;14.104;2023-06-22T00:15:32;19.43;;;17.70;;
3121;SDS011;1571;52.524;14.104;2023-06-22T00:18:02;19.60;;;17.60;;
3121;SDS011;1571;52.524;14.104;2023-06-22T00:20:30;19.53;;;17.73;;
3121;SDS011;1571;52.524;14.104;2023-06-22T00:23:00;20.40;;;18.50;;
3121;SDS011;1571;52.524;14.104;2023-06-22T00:25:28;18.40;;;16.67;;
3121;SDS011;1571;52.524;14.104;2023-06-22T00:27:56;19.33;;;17.33;;
3121;SDS011;1571;52.524;14.104;2023-06-22T00:30:24;16.77;;;15.07;;
3121;SDS011;1571;52.524;14.104;2023-06-22T00:32:56;16.93;;;15.40;;
3121;SDS011;1571;52.524;14.104;2023-06-22T00:35:26;18.33;;;15.83;;
3121;SDS011;1571;52.524;14.104;2023-06-22T00:37:56;18.90;;;17.10;;
3121;SDS011;1571;52.524;14.104;2023-06-22T00:40:28;17.50;;;15.80;;
3121;SDS011;1571;52.524;14.104;2023-06-22T00:42:57;17.37;;;15.87;;
3121;SDS011;1571;52.524;14.104;2023-06-22T00:45:26;15.97;;;14.47;;
3121;SDS011;1571;52.524;14.104;2023-06-22T00:47:56;16.37;;;14.87;;
3121;SDS011;1571;52.524;14.104;2023-06-22T00:50:27;16.77;;;15.23;;
3121;SDS011;1571;52.524;14.104;2023-06-22T00:53:01;15.13;;;13.73;;
3121;SDS011;1571;52.524;14.104;2023-06-22T00:55:36;17.17;;;15.67;;
3121;SDS011;1571;52.524;14.104;2023-06-22T00:58:06;17.80;;;16.10;;
3121;SDS011;1571;52.524;14.104;2023-06-22T01:00:37;17.50;;;15.90;;
3121;SDS011;1571;52.524;14.104;2023-06-22T01:03:06;17.57;;;15.80;;
3121;SDS011;1571;52.524;14.104;2023-06-22T01:05:38;18.13;;;16.43;;
3121;SDS011;1571;52.524;14.104;2023-06-22T01:08:16;17.20;;;15.70;;
3121;SDS011;1571;52.524;14.104;2023-06-22T01:10:51;17.67;;;16.17;;
3121;SDS011;1571;52.524;14.104;2023-06-22T01:13:25;16.67;;;15.00;;
3121;SDS011;1571;52.524;14.104;2023-06-22T01:16:00;17.07;;;15.50;;
3121;SDS011;1571;52.524;14.104;2023-06-22T01:18:31;16.07;;;14.87;;
3121;SDS011;1571;52.524;14.104;2023-06-22T01:21:05;17.63;;;16.00;;
3121;SDS011;1571;52.524;14.104;2023-06-22T01:23:39;17.23;;;15.73;;
3121;SDS011;1571;52.524;14.104;2023-06-22T01:26:19;19.37;;;17.17;;
3121;SDS011;1571;52.524;14.104;2023-06-22T01:28:57;18.37;;;16.70;;
3121;SDS011;1571;52.524;14.104;2023-06-22T01:31:27;16.87;;;15.37;;
3121;SDS011;1571;52.524;14.104;2023-06-22T01:33:58;17.97;;;16.47;;
3121;SDS011;1571;52.524;14.104;2023-06-22T01:36:28;17.03;;;15.33;;
3121;SDS011;1571;52.524;14.104;2023-06-22T01:38:58;18.07;;;16.47;;
3121;SDS011;1571;52.524;14.104;2023-06-22T01:41:27;19.27;;;17.67;;
3121;SDS011;1571;52.524;14.104;2023-06-22T01:43:58;18.33;;;16.57;;
3121;SDS011;1571;52.524;14.104;2023-06-22T01:46:28;17.80;;;15.40;;
3121;SDS011;1571;52.524;14.104;2023-06-22T01:48:57;17.07;;;15.27;;
3121;SDS011;1571;52.524;14.104;2023-06-22T01:51:26;22.43;;;17.60;;
3121;SDS011;1571;52.524;14.104;2023-06-22T01:53:54;17.60;;;16.00;;
3121;SDS011;1571;52.524;14.104;2023-06-22T01:56:22;18.37;;;16.43;;
3121;SDS011;1571;52.524;14.104;2023-06-22T01:58:54;19.50;;;16.73;;
3121;SDS011;1571;52.524;14.104;2023-06-22T02:01:28;16.03;;;14.57;;
3121;SDS011;1571;52.524;14.104;2023-06-22T02:04:02;17.27;;;15.60;;
3121;SDS011;1571;52.524;14.104;2023-06-22T02:06:36;17.67;;;15.50;;
3121;SDS011;1571;52.524;14.104;2023-06-22T02:09:09;20.63;;;15.73;;
3121;SDS011;1571;52.524;14.104;2023-06-22T02:11:42;17.30;;;15.60;;
3121;SDS011;1571;52.524;14.104;2023-06-22T02:14:13;18.80;;;17.10;;
3121;SDS011;1571;52.524;14.104;2023-06-22T02:16:47;22.87;;;17.43;;
3121;SDS011;1571;52.524;14.104;2023-06-22T02:19:15;18.60;;;16.77;;
3121;SDS011;1571;52.524;14.104;2023-06-22T02:21:45;18.33;;;16.33;;
3121;SDS011;1571;52.524;14.104;2023-06-22T02:24:13;16.83;;;15.33;;
3121;SDS011;1571;52.524;14.104;2023-06-22T02:26:42;23.90;;;19.73;;
3121;SDS011;1571;52.524;14.104;2023-06-22T02:29:12;18.97;;;17.30;;
3121;SDS011;1571;52.524;14.104;2023-06-22T02:31:42;19.50;;;17.10;;
3121;SDS011;1571;52.524;14.104;2023-06-22T02:34:13;21.20;;;16.57;;
3121;SDS011;1571;52.524;14.104;2023-06-22T02:36:45;18.03;;;16.33;;
3121;SDS011;1571;52.524;14.104;2023-06-22T02:39:18;19.17;;;17.17;;
3121;SDS011;1571;52.524;14.104;2023-06-22T02:41:49;19.07;;;17.20;;
3121;SDS011;1571;52.524;14.104;2023-06-22T02:44:18;19.30;;;17.50;;
3121;SDS011;1571;52.524;14.104;2023-06-22T02:46:47;19.50;;;17.50;;
3121;SDS011;1571;52.524;14.104;2023-06-22T02:49:18;17.43;;;15.73;;
3121;SDS011;1571;52.524;14.104;2023-06-22T02:51:47;19.93;;;17.93;;
3121;SDS011;1571;52.524;14.104;2023-06-22T02:54:19;18.67;;;16.73;;
3121;SDS011;1571;52.524;14.104;2023-06-22T02:56:50;18.27;;;16.53;;
3121;SDS011;1571;52.524;14.104;2023-06-22T02:59:20;18.93;;;17.17;;
3121;SDS011;1571;52.524;14.104;2023-06-22T03:01:53;19.30;;;17.50;;
3121;SDS011;1571;52.524;14.104;2023-06-22T03:04:27;21.47;;;19.23;;
3121;SDS011;1571;52.524;14.104;2023-06-22T03:06:55;22.83;;;20.63;;
3121;SDS011;1571;52.524;14.104;2023-06-22T03:09:29;20.20;;;18.40;;
3121;SDS011;1571;52.524;14.104;2023-06-22T03:11:58;23.20;;;19.10;;
3121;SDS011;1571;52.524;14.104;2023-06-22T03:14:34;20.60;;;18.40;;
3121;SDS011;1571;52.524;14.104;2023-06-22T03:17:04;18.87;;;16.70;;
3121;SDS011;1571;52.524;14.104;2023-06-22T03:19:34;18.23;;;16.53;;
3121;SDS011;1571;52.524;14.104;2023-06-22T03:22:02;18.57;;;16.63;;
3121;SDS011;1571;52.524;14.104;2023-06-22T03:24:31;21.17;;;19.20;;
3121;SDS011;1571;52.524;14.104;2023-06-22T03:27:01;24.47;;;21.90;;
3121;SDS011;1571;52.524;14.104;2023-06-22T03:29:33;20.23;;;18.30;;
3121;SDS011;1571;52.524;14.104;2023-06-22T03:32:02;22.30;;;19.67;;
3121;SDS011;1571;52.524;14.104;2023-06-22T03:34:32;19.43;;;17.63;;
3121;SDS011;1571;52.524;14.104;2023-06-22T03:37:02;21.50;;;19.43;;
3121;SDS011;1571;52.524;14.104;2023-06-22T03:39:31;21.03;;;19.00;;
3121;SDS011;1571;52.524;14.104;2023-06-22T03:41:59;19.27;;;17.50;;
3121;SDS011;1571;52.524;14.104;2023-06-22T03:44:28;20.10;;;18.10;;
3121;SDS011;1571;52.524;14.104;2023-06-22T03:46:57;19.67;;;17.77;;
3121;SDS011;1571;52.524;14.104;2023-06-22T03:49:26;22.23;;;18.33;;
3121;SDS011;1571;52.524;14.104;2023-06-22T03:51:54;20.90;;;18.80;;
3121;SDS011;1571;52.524;14.104;2023-06-22T03:54:24;21.80;;;19.50;;
3121;SDS011;1571;52.524;14.104;2023-06-22T03:56:52;21.70;;;17.63;;
3121;SDS011;1571;52.524;14.104;2023-06-22T03:59:20;20.33;;;18.40;;
3121;SDS011;1571;52.524;14.104;2023-06-22T04:01:49;20.63;;;18.53;;
3121;SDS011;1571;52.524;14.104;2023-06-22T04:04:17;20.80;;;18.80;;
3121;SDS011;1571;52.524;14.104;2023-06-22T04:06:46;22.30;;;20.30;;
3121;SDS011;1571;52.524;14.104;2023-06-22T04:09:14;22.77;;;19.33;;
3121;SDS011;1571;52.524;14.104;2023-06-22T04:11:44;22.20;;;18.80;;
3121;SDS011;1571;52.524;14.104;2023-06-22T04:14:12;20.97;;;19.10;;
3121;SDS011;1571;52.524;14.104;2023-06-22T04:16:41;19.33;;;17.53;;
3121;SDS011;1571;52.524;14.104;2023-06-22T04:19:09;18.30;;;16.50;;
3121;SDS011;1571;52.524;14.104;2023-06-22T04:21:43;19.27;;;17.00;;
3121;SDS011;1571;52.524;14.104;2023-06-22T04:24:11;20.10;;;18.20;;
3121;SDS011;1571;52.524;14.104;2023-06-22T04:26:39;20.07;;;18.07;;
3121;SDS011;1571;52.524;14.104;2023-06-22T04:29:10;18.20;;;16.60;;
3121;SDS011;1571;52.524;14.104;2023-06-22T04:31:39;21.90;;;19.90;;
3121;SDS011;1571;52.524;14.104;2023-06-22T04:34:08;19.90;;;18.20;;
3121;SDS011;1571;52.524;14.104;2023-06-22T04:36:36;18.77;;;17.10;;
3121;SDS011;1571;52.524;14.104;2023-06-22T04:39:06;18.63;;;16.73;;
3121;SDS011;1571;52.524;14.104;2023-06-22T04:41:36;17.70;;;16.20;;
3121;SDS011;1571;52.524;14.104;2023-06-22T04:44:11;18.97;;;17.40;;
3121;SDS011;1571;52.524;14.104;2023-06-22T04:46:39;19.33;;;17.47;;
3121;SDS011;1571;52.524;14.104;2023-06-22T04:49:08;21.00;;;18.37;;
3121;SDS011;1571;52.524;14.104;2023-06-22T04:51:39;18.87;;;17.17;;
3121;SDS011;1571;52.524;14.104;2023-06-22T04:54:08;17.03;;;15.33;;
3121;SDS011;1571;52.524;14.104;2023-06-22T04:56:37;18.50;;;16.90;;
3121;SDS011;1571;52.524;14.104;2023-06-22T04:59:08;17.07;;;15.60;;
3121;SDS011;1571;52.524;14.104;2023-06-22T05:01:41;16.97;;;15.23;;
3121;SDS011;1571;52.524;14.104;2023-06-22T05:04:09;17.43;;;15.83;;
3121;SDS011;1571;52.524;14.104;2023-06-22T05:06:38;15.47;;;14.07;;
3121;SDS011;1571;52.524;14.104;2023-06-22T05:09:07;14.17;;;12.97;;
3121;SDS011;1571;52.524;14.104;2023-06-22T05:11:35;13.13;;;12.03;;
3121;SDS011;1571;52.524;14.104;2023-06-22T05:14:04;13.40;;;12.20;;
3121;SDS011;1571;52.524;14.104;2023-06-22T05:16:32;11.80;;;10.80;;
3121;SDS011;1571;52.524;14.104;2023-06-22T05:19:02;13.03;;;11.80;;
3121;SDS011;1571;52.524;14.104;2023-06-22T05:21:31;13.90;;;10.70;;
3121;SDS011;1571;52.524;14.104;2023-06-22T05:23:59;11.37;;;10.33;;
3121;SDS011;1571;52.524;14.104;2023-06-22T05:26:29;11.53;;;10.37;;
3121;SDS011;1571;52.524;14.104;2023-06-22T05:28:58;11.10;;;10.10;;
3121;SDS011;1571;52.524;14.104;2023-06-22T05:31:28;10.53;;;9.47;;
3121;SDS011;1571;52.524;14.104;2023-06-22T05:33:56;10.60;;;9.60;;
3121;SDS011;1571;52.524;14.104;2023-06-22T05:36:26;11.50;;;10.40;;
3121;SDS011;1571;52.524;14.104;2023-06-22T05:38:55;10.90;;;10.00;;
3121;SDS011;1571;52.524;14.104;2023-06-22T05:41:24;9.73;;;8.90;;
3121;SDS011;1571;52.524;14.104;2023-06-22T05:43:52;11.57;;;10.33;;
3121;SDS011;1571;52.524;14.104;2023-06-22T05:46:21;10.93;;;10.03;;
3121;SDS011;1571;52.524;14.104;2023-06-22T05:48:49;10.60;;;9.60;;
3121;SDS011;1571;52.524;14.104;2023-06-22T05:51:17;11.23;;;10.23;;
3121;SDS011;1571;52.524;14.104;2023-06-22T05:53:47;12.07;;;10.23;;
3121;SDS011;1571;52.524;14.104;2023-06-22T05:56:16;11.83;;;10.73;;
3121;SDS011;1571;52.524;14.104;2023-06-22T05:58:45;10.60;;;9.70;;
3121;SDS011;1571;52.524;14.104;2023-06-22T06:01:14;11.13;;;10.20;;
3121;SDS011;1571;52.524;14.104;2023-06-22T06:03:42;12.17;;;9.80;;
3121;SDS011;1571;52.524;14.104;2023-06-22T06:06:11;10.27;;;9.37;;
3121;SDS011;1571;52.524;14.104;2023-06-22T06:08:40;10.17;;;8.80;;
3121;SDS011;1571;52.524;14.104;2023-06-22T06:11:10;10.10;;;9.30;;
3121;SDS011;1571;52.524;14.104;2023-06-22T06:13:38;11.30;;;9.10;;
3121;SDS011;1571;52.524;14.104;2023-06-22T06:16:06;9.70;;;8.80;;
3121;SDS011;1571;52.524;14.104;2023-06-22T06:18:35;7.93;;;6.93;;
3121;SDS011;1571;52.524;14.104;2023-06-22T06:21:04;6.60;;;6.10;;
3121;SDS011;1571;52.524;14.104;2023-06-22T06:23:32;5.63;;;5.23;;
3121;SDS011;1571;52.524;14.104;2023-06-22T06:26:00;5.73;;;5.23;;
3121;SDS011;1571;52.524;14.104;2023-06-22T06:28:30;5.90;;;5.50;;
3121;SDS011;1571;52.524;14.104;2023-06-22T06:30:58;4.53;;;4.13;;
3121;SDS011;1571;52.524;14.104;2023-06-22T06:33:27;5.10;;;4.70;;
3121;SDS011;1571;52.524;14.104;2023-06-22T06:35:55;5.67;;;5.17;;
3121;SDS011;1571;52.524;14.104;2023-06-22T06:38:23;6.03;;;4.90;;
3121;SDS011;1571;52.524;14.104;2023-06-22T06:40:51;5.20;;;4.57;;
3121;SDS011;1571;52.524;14.104;2023-06-22T06:43:20;4.20;;;3.90;;
3121;SDS011;1571;52.524;14.104;2023-06-22T06:45:49;3.40;;;3.20;;
3121;SDS011;1571;52.524;14.104;2023-06-22T06:48:18;5.70;;;3.20;;
3121;SDS011;1571;52.524;14.104;2023-06-22T06:50:46;4.83;;;4.50;;
3121;SDS011;1571;52.524;14.104;2023-06-22T06:53:15;10.80;;;3.70;;
3121;SDS011;1571;52.524;14.104;2023-06-22T06:55:43;3.67;;;3.37;;
3121;SDS011;1571;52.524;14.104;2023-06-22T06:58:12;4.83;;;4.43;;
3121;SDS011;1571;52.524;14.104;2023-06-22T07:00:41;7.10;;;4.07;;
3121;SDS011;1571;52.524;14.104;2023-06-22T07:03:11;4.30;;;4.00;;
3121;SDS011;1571;52.524;14.104;2023-06-22T07:05:40;3.83;;;3.20;;
3121;SDS011;1571;52.524;14.104;2023-06-22T07:08:08;3.60;;;3.30;;
3121;SDS011;1571;52.524;14.104;2023-06-22T07:10:36;3.00;;;2.80;;
3121;SDS011;1571;52.524;14.104;2023-06-22T07:13:04;2.53;;;2.43;;
3121;SDS011;1571;52.524;14.104;2023-06-22T07:15:32;4.30;;;2.87;;
3121;SDS011;1571;52.524;14.104;2023-06-22T07:18:01;2.93;;;2.60;;
3121;SDS011;1571;52.524;14.104;2023-06-22T07:20:30;3.10;;;2.87;;
3121;SDS011;1571;52.524;14.104;2023-06-22T07:22:59;2.73;;;2.60;;
3121;SDS011;1571;52.524;14.104;2023-06-22T07:25:27;5.70;;;2.77;;
3121;SDS011;1571;52.524;14.104;2023-06-22T07:27:57;2.87;;;2.67;;
3121;SDS011;1571;52.524;14.104;2023-06-22T07:30:26;4.07;;;2.80;;
3121;SDS011;1571;52.524;14.104;2023-06-22T07:32:56;2.33;;;2.10;;
3121;SDS011;1571;52.524;14.104;2023-06-22T07:35:25;2.50;;;2.30;;
3121;SDS011;1571;52.524;14.104;2023-06-22T07:37:54;2.60;;;2.20;;
3121;SDS011;1571;52.524;14.104;2023-06-22T07:40:22;2.57;;;1.73;;
3121;SDS011;1571;52.524;14.104;2023-06-22T07:42:51;1.87;;;1.77;;
3121;SDS011;1571;52.524;14.104;2023-06-22T07:45:20;2.70;;;2.50;;
3121;SDS011;1571;52.524;14.104;2023-06-22T07:47:48;2.77;;;2.47;;
3121;SDS011;1571;52.524;14.104;2023-06-22T07:50:17;2.43;;;1.67;;
3121;SDS011;1571;52.524;14.104;2023-06-22T07:52:45;2.33;;;1.20;;
3121;SDS011;1571;52.524;14.104;2023-06-22T07:55:16;2.27;;;2.17;;
3121;SDS011;1571;52.524;14.104;2023-06-22T07:57:46;2.40;;;2.10;;
3121;SDS011;1571;52.524;14.104;2023-06-22T08:00:15;2.57;;;2.37;;
3121;SDS011;1571;52.524;14.104;2023-06-22T08:02:45;2.77;;;2.60;;
3121;SDS011;1571;52.524;14.104;2023-06-22T08:05:14;2.93;;;2.60;;
3121;SDS011;1571;52.524;14.104;2023-06-22T08:07:48;3.40;;;2.30;;
3121;SDS011;1571;52.524;14.104;2023-06-22T08:10:18;1.80;;;1.70;;
3121;SDS011;1571;52.524;14.104;2023-06-22T08:12:47;4.13;;;1.67;;
3121;SDS011;1571;52.524;14.104;2023-06-22T08:15:15;1.47;;;1.47;;
3121;SDS011;1571;52.524;14.104;2023-06-22T08:17:44;1.67;;;1.57;;
3121;SDS011;1571;52.524;14.104;2023-06-22T08:20:12;3.03;;;1.53;;
3121;SDS011;1571;52.524;14.104;2023-06-22T08:22:41;1.90;;;1.80;;
3121;SDS011;1571;52.524;14.104;2023-06-22T08:25:10;3.40;;;1.83;;
3121;SDS011;1571;52.524;14.104;2023-06-22T08:27:42;2.93;;;1.70;;
3121;SDS011;1571;52.524;14.104;2023-06-22T08:30:13;3.27;;;1.27;;
3121;SDS011;1571;52.524;14.104;2023-06-22T08:32:41;1.70;;;1.60;;
3121;SDS011;1571;52.524;14.104;2023-06-22T08:35:10;2.40;;;1.50;;
3121;SDS011;1571;52.524;14.104;2023-06-22T08:37:38;2.93;;;1.70;;
3121;SDS011;1571;52.524;14.104;2023-06-22T08:40:07;2.20;;;1.77;;
3121;SDS011;1571;52.524;14.104;2023-06-22T08:42:39;2.60;;;1.67;;
3121;SDS011;1571;52.524;14.104;2023-06-22T08:45:10;2.33;;;1.30;;
3121;SDS011;1571;52.524;14.104;2023-06-22T08:47:39;1.80;;;1.70;;
3121;SDS011;1571;52.524;14.104;2023-06-22T08:50:08;2.83;;;1.50;;
3121;SDS011;1571;52.524;14.104;2023-06-22T08:52:38;1.83;;;1.40;;
3121;SDS011;1571;52.524;14.104;2023-06-22T08:55:08;1.77;;;1.67;;
3121;SDS011;1571;52.524;14.104;2023-06-22T08:57:37;1.80;;;1.57;;
3121;SDS011;1571;52.524;14.104;2023-06-22T09:00:07;2.10;;;1.87;;
3121;SDS011;1571;52.524;14.104;2023-06-22T09:02:45;2.10;;;1.73;;
3121;SDS011;1571;52.524;14.104;2023-06-22T09:05:14;2.30;;;1.93;;
3121;SDS011;1571;52.524;14.104;2023-06-22T09:07:42;6.00;;;2.47;;
3121;SDS011;1571;52.524;14.104;2023-06-22T09:10:11;3.20;;;1.90;;
3121;SDS011;1571;52.524;14.104;2023-06-22T09:12:39;2.87;;;1.83;;
3121;SDS011;1571;52.524;14.104;2023-06-22T09:15:08;2.00;;;1.80;;
3121;SDS011;1571;52.524;14.104;2023-06-22T09:17:54;3.50;;;1.97;;
3121;SDS011;1571;52.524;14.104;2023-06-22T09:20:24;2.13;;;2.00;;
3121;SDS011;1571;52.524;14.104;2023-06-22T09:22:52;2.30;;;1.93;;
3121;SDS011;1571;52.524;14.104;2023-06-22T09:25:20;1.87;;;1.77;;
3121;SDS011;1571;52.524;14.104;2023-06-22T09:27:49;2.37;;;2.17;;
3121;SDS011;1571;52.524;14.104;2023-06-22T09:30:17;1.70;;;1.60;;
3121;SDS011;1571;52.524;14.104;2023-06-22T09:32:45;2.50;;;2.30;;
3121;SDS011;1571;52.524;14.104;2023-06-22T09:35:15;1.90;;;1.80;;
3121;SDS011;1571;52.524;14.104;2023-06-22T09:37:43;2.73;;;1.40;;
3121;SDS011;1571;52.524;14.104;2023-06-22T09:40:12;11.83;;;2.27;;
3121;SDS011;1571;52.524;14.104;2023-06-22T09:42:42;1.50;;;1.40;;
3121;SDS011;1571;52.524;14.104;2023-06-22T09:45:10;2.60;;;1.40;;
3121;SDS011;1571;52.524;14.104;2023-06-22T09:47:39;2.57;;;1.63;;
3121;SDS011;1571;52.524;14.104;2023-06-22T09:50:08;1.60;;;1.50;;
3121;SDS011;1571;52.524;14.104;2023-06-22T09:52:39;2.60;;;1.20;;
3121;SDS011;1571;52.524;14.104;2023-06-22T09:55:14;2.00;;;1.47;;
3121;SDS011;1571;52.524;14.104;2023-06-22T09:57:43;1.40;;;1.30;;
3121;SDS011;1571;52.524;14.104;2023-06-22T10:00:12;2.47;;;2.27;;
3121;SDS011;1571;52.524;14.104;2023-06-22T10:02:42;1.67;;;1.30;;
3121;SDS011;1571;52.524;14.104;2023-06-22T10:05:11;1.73;;;1.63;;
3121;SDS011;1571;52.524;14.104;2023-06-22T10:07:41;1.53;;;1.43;;
3121;SDS011;1571;52.524;14.104;2023-06-22T10:10:11;2.30;;;1.30;;
3121;SDS011;1571;52.524;14.104;2023-06-22T10:12:41;1.63;;;1.40;;
3121;SDS011;1571;52.524;14.104;2023-06-22T10:15:11;1.73;;;1.63;;
3121;SDS011;1571;52.524;14.104;2023-06-22T10:17:40;1.77;;;1.50;;
3121;SDS011;1571;52.524;14.104;2023-06-22T10:20:08;2.07;;;1.20;;
3121;SDS011;1571;52.524;14.104;2023-06-22T10:22:39;2.10;;;1.70;;
3121;SDS011;1571;52.524;14.104;2023-06-22T10:25:09;1.80;;;1.53;;
3121;SDS011;1571;52.524;14.104;2023-06-22T10:27:39;4.13;;;1.57;;
3121;SDS011;1571;52.524;14.104;2023-06-22T10:30:08;1.60;;;1.50;;
3121;SDS011;1571;52.524;14.104;2023-06-22T10:32:40;1.50;;;1.40;;
3121;SDS011;1571;52.524;14.104;2023-06-22T10:35:10;1.80;;;1.70;;
3121;SDS011;1571;52.524;14.104;2023-06-22T10:37:41;1.50;;;1.40;;
3121;SDS011;1571;52.524;14.104;2023-06-22T10:40:12;1.83;;;1.73;;
3121;SDS011;1571;52.524;14.104;2023-06-22T10:42:42;3.23;;;1.30;;
3121;SDS011;1571;52.524;14.104;2023-06-22T10:45:11;3.13;;;1.50;;
3121;SDS011;1571;52.524;14.104;2023-06-22T10:47:40;1.40;;;1.30;;
3121;SDS011;1571;52.524;14.104;2023-06-22T10:50:10;1.90;;;1.77;;
3121;SDS011;1571;52.524;14.104;2023-06-22T10:52:39;1.97;;;1.87;;
3121;SDS011;1571;52.524;14.104;2023-06-22T10:55:09;4.47;;;1.60;;
3121;SDS011;1571;52.524;14.104;2023-06-22T10:57:39;2.17;;;1.97;;
3121;SDS011;1571;52.524;14.104;2023-06-22T11:00:11;1.93;;;1.83;;
3121;SDS011;1571;52.524;14.104;2023-06-22T11:02:40;2.90;;;2.70;;
3121;SDS011;1571;52.524;14.104;2023-06-22T11:05:09;2.00;;;1.90;;
3121;SDS011;1571;52.524;14.104;2023-06-22T11:07:37;2.70;;;1.80;;
3121;SDS011;1571;52.524;14.104;2023-06-22T11:10:11;1.80;;;1.70;;
3121;SDS011;1571;52.524;14.104;2023-06-22T11:12:41;2.00;;;1.90;;
3121;SDS011;1571;52.524;14.104;2023-06-22T11:15:10;2.90;;;1.77;;
3121;SDS011;1571;52.524;14.104;2023-06-22T11:17:38;2.40;;;1.50;;
3121;SDS011;1571;52.524;14.104;2023-06-22T11:20:07;1.73;;;1.63;;
3121;SDS011;1571;52.524;14.104;2023-06-22T11:22:38;2.73;;;1.87;;
3121;SDS011;1571;52.524;14.104;2023-06-22T11:25:07;2.70;;;2.20;;
3121;SDS011;1571;52.524;14.104;2023-06-22T11:27:36;4.50;;;1.60;;
3121;SDS011;1571;52.524;14.104;2023-06-22T11:30:06;3.60;;;2.10;;
3121;SDS011;1571;52.524;14.104;2023-06-22T11:32:35;1.73;;;1.63;;
3121;SDS011;1571;52.524;14.104;2023-06-22T11:35:04;2.67;;;2.47;;
3121;SDS011;1571;52.524;14.104;2023-06-22T11:37:33;1.90;;;1.80;;
3121;SDS011;1571;52.524;14.104;2023-06-22T11:40:01;2.17;;;2.07;;
3121;SDS011;1571;52.524;14.104;2023-06-22T11:42:33;2.67;;;2.00;;
3121;SDS011;1571;52.524;14.104;2023-06-22T11:45:02;2.63;;;2.33;;
3121;SDS011;1571;52.524;14.104;2023-06-22T11:47:34;2.30;;;2.20;;
3121;SDS011;1571;52.524;14.104;2023-06-22T11:50:03;2.77;;;2.57;;
3121;SDS011;1571;52.524;14.104;2023-06-22T11:52:33;2.63;;;2.43;;
3121;SDS011;1571;52.524;14.104;2023-06-22T11:55:03;3.77;;;2.33;;
3121;SDS011;1571;52.524;14.104;2023-06-22T11:57:32;2.33;;;2.13;;
3121;SDS011;1571;52.524;14.104;2023-06-22T12:00:02;1.70;;;1.60;;
3121;SDS011;1571;52.524;14.104;2023-06-22T12:02:44;3.37;;;2.07;;
3121;SDS011;1571;52.524;14.104;2023-06-22T12:05:13;3.07;;;2.20;;
3121;SDS011;1571;52.524;14.104;2023-06-22T12:07:41;5.33;;;2.03;;
3121;SDS011;1571;52.524;14.104;2023-06-22T12:10:09;2.50;;;2.30;;
3121;SDS011;1571;52.524;14.104;2023-06-22T12:12:38;2.60;;;2.20;;
3121;SDS011;1571;52.524;14.104;2023-06-22T12:15:06;2.43;;;2.23;;
3121;SDS011;1571;52.524;14.104;2023-06-22T12:17:35;3.13;;;2.83;;
3121;SDS011;1571;52.524;14.104;2023-06-22T12:20:06;3.10;;;2.90;;
3121;SDS011;1571;52.524;14.104;2023-06-22T12:22:35;3.33;;;3.03;;
3121;SDS011;1571;52.524;14.104;2023-06-22T12:25:05;2.80;;;2.23;;
3121;SDS011;1571;52.524;14.104;2023-06-22T12:27:34;3.03;;;2.83;;
3121;SDS011;1571;52.524;14.104;2023-06-22T12:30:04;2.97;;;2.67;;
3121;SDS011;1571;52.524;14.104;2023-06-22T12:32:33;3.73;;;2.60;;
3121;SDS011;1571;52.524;14.104;2023-06-22T12:35:01;3.00;;;2.80;;
3121;SDS011;1571;52.524;14.104;2023-06-22T12:37:31;3.03;;;2.83;;
3121;SDS011;1571;52.524;14.104;2023-06-22T12:40:00;2.60;;;2.50;;
3121;SDS011;1571;52.524;14.104;2023-06-22T12:42:30;4.30;;;2.73;;
3121;SDS011;1571;52.524;14.104;2023-06-22T12:44:58;4.20;;;2.70;;
3121;SDS011;1571;52.524;14.104;2023-06-22T12:47:27;4.90;;;2.80;;
3121;SDS011;1571;52.524;14.104;2023-06-22T12:49:55;2.73;;;2.40;;
3121;SDS011;1571;52.524;14.104;2023-06-22T12:52:23;3.13;;;2.90;;
3121;SDS011;1571;52.524;14.104;2023-06-22T12:54:53;2.90;;;2.70;;
3121;SDS011;1571;52.524;14.104;2023-06-22T12:57:22;2.97;;;2.77;;
3121;SDS011;1571;52.524;14.104;2023-06-22T12:59:50;5.50;;;3.97;;
3121;SDS011;1571;52.524;14.104;2023-06-22T13:02:18;3.53;;;3.03;;
3121;SDS011;1571;52.524;14.104;2023-06-22T13:04:47;2.67;;;2.43;;
3121;SDS011;1571;52.524;14.104;2023-06-22T13:07:15;3.30;;;3.10;;
3121;SDS011;1571;52.524;14.104;2023-06-22T13:09:49;3.40;;;3.20;;
3121;SDS011;1571;52.524;14.104;2023-06-22T13:12:20;3.13;;;2.83;;
3121;SDS011;1571;52.524;14.104;2023-06-22T13:14:49;3.70;;;3.40;;
3121;SDS011;1571;52.524;14.104;2023-06-22T13:17:17;3.40;;;3.10;;
3121;SDS011;1571;52.524;14.104;2023-06-22T13:19:46;3.67;;;3.20;;
3121;SDS011;1571;52.524;14.104;2023-06-22T13:22:28;3.07;;;2.87;;
3121;SDS011;1571;52.524;14.104;2023-06-22T13:24:58;3.33;;;3.03;;
3121;SDS011;1571;52.524;14.104;2023-06-22T13:27:28;3.20;;;3.00;;
3121;SDS011;1571;52.524;14.104;2023-06-22T13:29:57;3.90;;;3.70;;
3121;SDS011;1571;52.524;14.104;2023-06-22T13:32:25;2.70;;;2.60;;
3121;SDS011;1571;52.524;14.104;2023-06-22T13:34:53;3.50;;;3.30;;
3121;SDS011;1571;52.524;14.104;2023-06-22T13:37:22;3.60;;;3.40;;
3121;SDS011;1571;52.524;14.104;2023-06-22T13:39:51;3.87;;;3.33;;
3121;SDS011;1571;52.524;14.104;2023-06-22T13:42:19;3.60;;;3.30;;
3121;SDS011;1571;52.524;14.104;2023-06-22T13:44:49;4.80;;;2.90;;
3121;SDS011;1571;52.524;14.104;2023-06-22T13:47:17;3.60;;;3.30;;
3121;SDS011;1571;52.524;14.104;2023-06-22T13:49:45;3.03;;;2.73;;
3121;SDS011;1571;52.524;14.104;2023-06-22T13:52:13;3.33;;;3.13;;
3121;SDS011;1571;52.524;14.104;2023-06-22T13:54:42;4.03;;;3.80;;
3121;SDS011;1571;52.524;14.104;2023-06-22T13:57:10;3.77;;;3.57;;
3121;SDS011;1571;52.524;14.104;2023-06-22T13:59:38;3.07;;;2.83;;
3121;SDS011;1571;52.524;14.104;2023-06-22T14:02:08;3.47;;;3.27;;
3121;SDS011;1571;52.524;14.104;2023-06-22T14:04:36;3.50;;;3.20;;
3121;SDS011;1571;52.524;14.104;2023-06-22T14:07:05;3.73;;;3.43;;
3121;SDS011;1571;52.524;14.104;2023-06-22T14:09:34;3.00;;;2.80;;
3121;SDS011;1571;52.524;14.104;2023-06-22T14:12:05;4.77;;;3.67;;
3121;SDS011;1571;52.524;14.104;2023-06-22T14:14:34;3.73;;;3.53;;
3121;SDS011;1571;52.524;14.104;2023-06-22T14:17:03;3.27;;;3.10;;
3121;SDS011;1571;52.524;14.104;2023-06-22T14:19:33;4.07;;;3.60;;
3121;SDS011;1571;52.524;14.104;2023-06-22T14:22:01;3.57;;;3.37;;
3121;SDS011;1571;52.524;14.104;2023-06-22T14:24:29;5.00;;;4.63;;
3121;SDS011;1571;52.524;14.104;2023-06-22T14:26:58;5.10;;;4.60;;
3121;SDS011;1571;52.524;14.104;2023-06-22T14:29:29;5.60;;;3.67;;
3121;SDS011;1571;52.524;14.104;2023-06-22T14:31:57;3.63;;;3.43;;
3121;SDS011;1571;52.524;14.104;2023-06-22T14:34:27;4.27;;;3.90;;
3121;SDS011;1571;52.524;14.104;2023-06-22T14:36:56;3.83;;;3.53;;
3121;SDS011;1571;52.524;14.104;2023-06-22T14:39:25;3.60;;;3.40;;
3121;SDS011;1571;52.524;14.104;2023-06-22T14:41:53;6.00;;;4.83;;
3121;SDS011;1571;52.524;14.104;2023-06-22T14:44:21;3.70;;;3.40;;
3121;SDS011;1571;52.524;14.104;2023-06-22T14:46:50;4.17;;;3.87;;
3121;SDS011;1571;52.524;14.104;2023-06-22T14:49:18;4.30;;;3.90;;
3121;SDS011;1571;52.524;14.104;2023-06-22T14:51:48;4.33;;;3.93;;
3121;SDS011;1571;52.524;14.104;2023-06-22T14:54:18;4.27;;;3.97;;
3121;SDS011;1571;52.524;14.104;2023-06-22T14:56:47;4.27;;;3.00;;
3121;SDS011;1571;52.524;14.104;2023-06-22T14:59:16;3.73;;;3.53;;
3121;SDS011;1571;52.524;14.104;2023-06-22T15:01:44;3.93;;;3.73;;
3121;SDS011;1571;52.524;14.104;2023-06-22T15:04:14;5.20;;;3.17;;